Time;durP1;ratioP1;P1;durP2;ratioP2;P2;SDS_P1;SDS_P2;PMS_P1;PMS_P2;Temp;Humidity;BMP_temperature;BMP_pressure;BME280_temperature;BME280_humidity;BME280_pressure;Samples;Min_cycle;Max_cycle;Signal;HPM_P1;HPM_P2
2023/03/19 00:01:57;;;;;;;10.30;7.60;;;;;;;;;;5049320;28;20186;-73
2023/03/19 00:04:24;;;;;;;11.53;7.90;;;;;;;;;;5045822;28;20203;-73
2023/03/19 00:06:50;;;;;;;10.87;7.50;;;;;;;;;;5045776;28;20177;-73
2023/03/19 00:09:17;;;;;;;12.87;8.27;;;;;;;;;;5047134;28;20213;-73
2023/03/19 00:11:43;;;;;;;13.67;7.50;;;;;;;;;;5043962;28;20200;-73
2023/03/19 00:14:09;;;;;;;9.90;7.17;;;;;;;;;;5044496;28;20217;-73
2023/03/19 00:16:35;;;;;;;11.33;7.63;;;;;;;;;;5054319;28;20178;-72
2023/03/19 00:19:02;;;;;;;11.70;7.20;;;;;;;;;;5045782;28;20189;-73
2023/03/19 00:21:29;;;;;;;10.83;6.83;;;;;;;;;;5049831;28;20185;-73
2023/03/19 00:23:59;;;;;;;10.43;6.57;;;;;;;;;;5047666;28;20198;-73
2023/03/19 00:26:29;;;;;;;9.43;6.63;;;;;;;;;;5047463;28;20285;-72
2023/03/19 00:28:56;;;;;;;9.57;6.13;;;;;;;;;;5048569;28;20213;-73
2023/03/19 00:31:22;;;;;;;10.77;7.57;;;;;;;;;;5048219;28;20186;-72
2023/03/19 00:33:49;;;;;;;10.87;7.30;;;;;;;;;;5032160;28;20263;-71
2023/03/19 00:36:16;;;;;;;10.97;7.00;;;;;;;;;;5047903;28;20182;-72
2023/03/19 00:38:42;;;;;;;10.63;6.90;;;;;;;;;;5053367;28;20709;-73
2023/03/19 00:41:08;;;;;;;10.00;7.30;;;;;;;;;;5045339;28;20190;-73
2023/03/19 00:43:35;;;;;;;11.70;7.20;;;;;;;;;;5048247;28;20187;-73
2023/03/19 00:46:01;;;;;;;16.00;7.97;;;;;;;;;;5055781;28;20637;-73
2023/03/19 00:48:27;;;;;;;12.43;8.00;;;;;;;;;;5047074;28;20216;-73
2023/03/19 00:50:54;;;;;;;10.20;7.97;;;;;;;;;;5046118;28;20232;-73
2023/03/19 00:53:20;;;;;;;11.90;7.60;;;;;;;;;;5048738;28;20606;-73
2023/03/19 00:55:46;;;;;;;10.60;7.23;;;;;;;;;;5041067;28;20679;-73
2023/03/19 00:58:12;;;;;;;10.63;8.33;;;;;;;;;;5052931;28;20193;-72
2023/03/19 01:00:38;;;;;;;21.33;10.23;;;;;;;;;;5045397;28;20189;-73
2023/03/19 01:03:07;;;;;;;17.57;9.80;;;;;;;;;;5047214;28;20679;-73
2023/03/19 01:05:36;;;;;;;22.63;12.77;;;;;;;;;;5046353;28;20631;-72
2023/03/19 01:08:03;;;;;;;20.83;12.13;;;;;;;;;;5047005;28;20217;-73
2023/03/19 01:10:29;;;;;;;17.83;10.50;;;;;;;;;;5049700;28;20190;-73
2023/03/19 01:12:56;;;;;;;17.70;9.70;;;;;;;;;;5047391;28;20178;-73
2023/03/19 01:15:22;;;;;;;12.03;8.30;;;;;;;;;;5048565;28;20189;-72
2023/03/19 01:17:48;;;;;;;11.10;7.17;;;;;;;;;;5049493;28;20190;-73
2023/03/19 01:20:17;;;;;;;10.87;7.40;;;;;;;;;;5045655;28;20190;-72
2023/03/19 01:22:44;;;;;;;10.10;7.67;;;;;;;;;;5027663;28;20228;-73
2023/03/19 01:25:11;;;;;;;10.83;7.27;;;;;;;;;;5024155;28;20225;-73
2023/03/19 01:27:40;;;;;;;10.83;6.40;;;;;;;;;;5044403;28;20693;-73
2023/03/19 01:30:07;;;;;;;11.00;8.30;;;;;;;;;;5043394;28;20186;-73
2023/03/19 01:32:56;;;;;;;12.80;8.17;;;;;;;;;;5030655;28;20194;-73
2023/03/19 01:35:56;;;;;;;9.13;7.30;;;;;;;;;;5037299;28;20289;-73
2023/03/19 01:38:26;;;;;;;12.97;8.17;;;;;;;;;;5041687;28;20194;-73
2023/03/19 01:40:56;;;;;;;11.17;7.47;;;;;;;;;;5044680;28;20191;-73
2023/03/19 01:43:24;;;;;;;16.17;10.07;;;;;;;;;;5044535;28;20184;-73
2023/03/19 01:46:15;;;;;;;13.43;8.03;;;;;;;;;;5042101;28;20590;-73
2023/03/19 01:49:13;;;;;;;19.93;10.90;;;;;;;;;;5034299;28;20224;-73
2023/03/19 01:51:42;;;;;;;16.53;9.10;;;;;;;;;;5042158;28;20206;-73
2023/03/19 01:54:18;;;;;;;13.30;8.30;;;;;;;;;;5043657;28;20193;-73
2023/03/19 01:56:52;;;;;;;16.13;9.00;;;;;;;;;;5028383;28;21030;-73
2023/03/19 01:59:28;;;;;;;14.33;8.90;;;;;;;;;;5041522;28;20181;-73
2023/03/19 02:02:20;;;;;;;16.80;9.90;;;;;;;;;;5046676;28;20197;-73
2023/03/19 02:04:48;;;;;;;14.57;8.87;;;;;;;;;;5060398;28;20209;-73
2023/03/19 02:07:16;;;;;;;10.97;7.70;;;;;;;;;;5043360;28;20197;-72
2023/03/19 02:09:42;;;;;;;8.93;6.70;;;;;;;;;;5045006;28;20229;-73
2023/03/19 02:12:09;;;;;;;10.40;7.07;;;;;;;;;;5046006;28;20835;-73
2023/03/19 02:14:35;;;;;;;7.83;6.50;;;;;;;;;;5046429;28;20206;-73
2023/03/19 02:17:01;;;;;;;9.17;6.73;;;;;;;;;;5045257;28;20173;-73
2023/03/19 02:19:39;;;;;;;8.47;7.07;;;;;;;;;;5040040;28;20238;-73
2023/03/19 02:22:06;;;;;;;9.20;6.70;;;;;;;;;;5026611;28;20196;-73
2023/03/19 02:24:35;;;;;;;9.23;7.00;;;;;;;;;;5042767;28;21066;-73
2023/03/19 02:27:07;;;;;;;18.03;8.57;;;;;;;;;;5040935;28;20281;-73
2023/03/19 02:29:37;;;;;;;17.80;9.50;;;;;;;;;;5044242;28;20236;-73
2023/03/19 02:32:04;;;;;;;18.70;10.40;;;;;;;;;;5057674;28;20190;-73
2023/03/19 02:34:35;;;;;;;28.00;11.70;;;;;;;;;;5023851;28;20580;-73
2023/03/19 02:37:04;;;;;;;22.83;11.43;;;;;;;;;;5041309;28;20589;-73
2023/03/19 02:39:32;;;;;;;15.33;9.37;;;;;;;;;;5039986;28;20273;-73
2023/03/19 02:41:59;;;;;;;24.27;11.90;;;;;;;;;;5039356;28;21016;-73
2023/03/19 02:44:26;;;;;;;33.20;13.87;;;;;;;;;;5024417;28;20222;-73
2023/03/19 02:46:52;;;;;;;20.87;11.07;;;;;;;;;;5043136;28;20871;-73
2023/03/19 02:49:19;;;;;;;12.77;8.10;;;;;;;;;;5042554;28;20304;-74
2023/03/19 02:51:45;;;;;;;13.23;7.70;;;;;;;;;;5040159;28;20319;-73
2023/03/19 02:54:11;;;;;;;25.73;11.77;;;;;;;;;;5041950;28;20208;-74
2023/03/19 02:56:37;;;;;;;21.90;10.97;;;;;;;;;;5040515;28;20774;-73
2023/03/19 02:59:05;;;;;;;40.43;15.77;;;;;;;;;;5026512;28;20277;-73
2023/03/19 03:01:31;;;;;;;38.07;15.77;;;;;;;;;;5043388;28;20190;-73
2023/03/19 03:03:57;;;;;;;50.47;18.20;;;;;;;;;;5041282;28;20220;-74
2023/03/19 03:06:23;;;;;;;28.87;12.70;;;;;;;;;;5042215;28;20555;-73
2023/03/19 03:08:50;;;;;;;17.73;8.90;;;;;;;;;;5042173;28;20225;-73
2023/03/19 03:11:17;;;;;;;11.67;8.67;;;;;;;;;;5041450;28;20170;-74
2023/03/19 03:13:43;;;;;;;9.97;7.33;;;;;;;;;;5040898;28;20180;-73
2023/03/19 03:16:09;;;;;;;10.47;7.20;;;;;;;;;;5042984;28;20174;-73
2023/03/19 03:18:36;;;;;;;10.27;7.93;;;;;;;;;;5039983;28;20248;-73
2023/03/19 03:21:02;;;;;;;8.77;6.63;;;;;;;;;;5042321;28;20268;-73
2023/03/19 03:23:28;;;;;;;9.67;7.07;;;;;;;;;;5041565;28;20190;-73
2023/03/19 03:25:54;;;;;;;10.90;7.53;;;;;;;;;;5042894;28;20634;-73
2023/03/19 03:28:21;;;;;;;11.87;7.47;;;;;;;;;;5043718;28;20203;-73
2023/03/19 03:30:47;;;;;;;13.43;7.77;;;;;;;;;;5046617;28;20174;-73
2023/03/19 03:33:15;;;;;;;23.57;10.47;;;;;;;;;;5043901;28;20174;-73
2023/03/19 03:35:43;;;;;;;11.40;7.07;;;;;;;;;;5046421;28;20254;-74
2023/03/19 03:38:10;;;;;;;11.40;6.43;;;;;;;;;;5045717;28;20189;-72
2023/03/19 03:40:36;;;;;;;11.17;6.20;;;;;;;;;;5042803;28;20186;-74
2023/03/19 03:43:02;;;;;;;10.00;6.03;;;;;;;;;;5027347;28;20190;-73
2023/03/19 03:45:30;;;;;;;10.03;6.33;;;;;;;;;;5042215;28;20583;-73
2023/03/19 03:47:56;;;;;;;9.70;6.27;;;;;;;;;;5042613;28;20196;-72
2023/03/19 03:50:22;;;;;;;9.33;6.53;;;;;;;;;;5043552;28;20189;-73
2023/03/19 03:52:51;;;;;;;8.63;5.90;;;;;;;;;;5042600;28;20185;-73
2023/03/19 03:55:18;;;;;;;8.97;6.13;;;;;;;;;;5045038;28;20235;-73
2023/03/19 03:57:44;;;;;;;6.93;5.30;;;;;;;;;;5042017;28;20178;-73
2023/03/19 04:00:11;;;;;;;6.83;5.33;;;;;;;;;;5046542;28;20633;-73
2023/03/19 04:02:40;;;;;;;8.50;5.20;;;;;;;;;;5043500;28;20680;-73
2023/03/19 04:05:08;;;;;;;6.80;4.93;;;;;;;;;;5025534;28;20209;-73
2023/03/19 04:07:36;;;;;;;6.87;4.80;;;;;;;;;;5043257;28;20543;-73
2023/03/19 04:10:03;;;;;;;7.07;5.33;;;;;;;;;;5042578;28;20218;-73
2023/03/19 04:12:29;;;;;;;7.53;5.50;;;;;;;;;;5042860;28;20332;-73
2023/03/19 04:14:55;;;;;;;6.90;5.30;;;;;;;;;;5046495;28;20201;-72
2023/03/19 04:17:22;;;;;;;6.97;5.43;;;;;;;;;;5042841;28;20215;-73
2023/03/19 04:19:48;;;;;;;8.83;5.77;;;;;;;;;;5044005;28;20193;-74
2023/03/19 04:22:15;;;;;;;7.93;5.83;;;;;;;;;;5039974;28;20194;-74
2023/03/19 04:24:41;;;;;;;9.07;6.03;;;;;;;;;;5039654;28;20212;-74
2023/03/19 04:27:07;;;;;;;7.27;5.30;;;;;;;;;;5043307;28;20184;-74
2023/03/19 04:29:34;;;;;;;9.70;5.97;;;;;;;;;;5023361;28;20206;-74
2023/03/19 04:32:01;;;;;;;7.37;5.20;;;;;;;;;;5041124;28;20180;-73
2023/03/19 04:34:27;;;;;;;7.17;5.07;;;;;;;;;;5041558;28;20673;-74
2023/03/19 04:36:53;;;;;;;9.37;5.33;;;;;;;;;;5041300;28;20224;-73
2023/03/19 04:39:19;;;;;;;6.60;5.30;;;;;;;;;;5043478;28;20192;-73
2023/03/19 04:41:46;;;;;;;7.03;5.20;;;;;;;;;;5037938;28;20225;-73
2023/03/19 04:44:28;;;;;;;7.70;4.90;;;;;;;;;;5040979;28;20208;-73
2023/03/19 04:46:55;;;;;;;8.90;4.37;;;;;;;;;;5057826;28;20182;-73
2023/03/19 04:49:22;;;;;;;6.43;4.50;;;;;;;;;;5039426;28;20212;-73
2023/03/19 04:51:50;;;;;;;8.00;5.60;;;;;;;;;;5040242;28;20189;-73
2023/03/19 04:54:16;;;;;;;6.33;5.30;;;;;;;;;;5054828;28;20248;-73
2023/03/19 04:56:42;;;;;;;7.90;5.20;;;;;;;;;;5039523;28;20166;-74
2023/03/19 04:59:09;;;;;;;8.97;6.07;;;;;;;;;;5039073;28;20233;-73
2023/03/19 05:01:36;;;;;;;6.23;5.50;;;;;;;;;;5058550;28;20194;-72
2023/03/19 05:04:06;;;;;;;8.70;6.23;;;;;;;;;;5041378;28;20267;-73
2023/03/19 05:06:35;;;;;;;6.73;5.10;;;;;;;;;;5044729;28;20260;-73
2023/03/19 05:09:01;;;;;;;5.73;4.80;;;;;;;;;;5043911;28;20343;-73
2023/03/19 05:11:28;;;;;;;7.27;5.13;;;;;;;;;;5040050;28;20197;-73
2023/03/19 05:14:02;;;;;;;7.30;5.00;;;;;;;;;;5044912;28;20542;-73
2023/03/19 05:16:37;;;;;;;7.97;4.87;;;;;;;;;;5045160;28;20180;-73
2023/03/19 05:19:04;;;;;;;6.03;4.67;;;;;;;;;;5042581;28;20597;-73
2023/03/19 05:21:31;;;;;;;6.57;4.90;;;;;;;;;;5061075;28;20190;-73
2023/03/19 05:23:58;;;;;;;8.33;5.00;;;;;;;;;;5043281;28;20213;-73
2023/03/19 05:26:25;;;;;;;5.83;4.60;;;;;;;;;;5047425;28;20668;-73
2023/03/19 05:29:10;;;;;;;6.90;4.60;;;;;;;;;;5045077;28;20217;-74
2023/03/19 05:31:50;;;;;;;6.37;4.90;;;;;;;;;;5044839;28;20201;-73
2023/03/19 05:34:19;;;;;;;5.63;4.07;;;;;;;;;;5041238;28;20301;-73
2023/03/19 05:36:45;;;;;;;5.97;4.30;;;;;;;;;;5059759;28;20264;-73
2023/03/19 05:39:16;;;;;;;7.90;4.07;;;;;;;;;;5026228;28;20194;-74
2023/03/19 05:41:43;;;;;;;9.13;4.50;;;;;;;;;;5041212;28;20268;-74
2023/03/19 05:44:11;;;;;;;5.90;4.00;;;;;;;;;;5042533;28;20205;-74
2023/03/19 05:47:00;;;;;;;6.00;4.20;;;;;;;;;;5043291;28;20705;-73
2023/03/19 05:49:31;;;;;;;7.47;4.30;;;;;;;;;;5063282;28;20288;-73
2023/03/19 05:51:57;;;;;;;4.93;3.73;;;;;;;;;;5048117;28;20246;-73
2023/03/19 05:54:23;;;;;;;6.40;4.00;;;;;;;;;;5026063;28;20670;-73
2023/03/19 05:56:57;;;;;;;6.67;3.77;;;;;;;;;;5050826;28;20173;-73
2023/03/19 05:59:42;;;;;;;6.10;4.87;;;;;;;;;;5046155;28;20174;-74
2023/03/19 06:02:29;;;;;;;5.67;4.27;;;;;;;;;;5040607;28;20232;-74
2023/03/19 06:05:11;;;;;;;5.50;4.17;;;;;;;;;;5043213;28;20201;-74
2023/03/19 06:07:37;;;;;;;6.77;4.40;;;;;;;;;;5032331;28;20207;-74
2023/03/19 06:10:09;;;;;;;7.20;4.37;;;;;;;;;;5045018;28;20239;-73
2023/03/19 06:12:35;;;;;;;5.10;3.80;;;;;;;;;;5026790;28;20197;-74
2023/03/19 06:15:16;;;;;;;4.80;3.93;;;;;;;;;;5049902;28;20203;-74
2023/03/19 06:18:03;;;;;;;4.93;3.70;;;;;;;;;;5042956;28;20225;-74
2023/03/19 06:20:30;;;;;;;6.03;4.07;;;;;;;;;;5044139;28;20602;-73
2023/03/19 06:22:56;;;;;;;5.67;3.70;;;;;;;;;;5041811;28;20189;-74
2023/03/19 06:25:23;;;;;;;7.63;3.93;;;;;;;;;;5042218;28;20834;-74
2023/03/19 06:27:50;;;;;;;5.67;4.20;;;;;;;;;;5041237;28;20186;-74
2023/03/19 06:30:30;;;;;;;5.60;4.10;;;;;;;;;;5044778;28;20182;-74
2023/03/19 06:32:59;;;;;;;5.87;4.10;;;;;;;;;;5058987;28;20198;-75
2023/03/19 06:35:25;;;;;;;5.57;4.00;;;;;;;;;;5044793;28;20197;-72
2023/03/19 06:37:52;;;;;;;4.87;3.90;;;;;;;;;;5037868;28;20182;-73
2023/03/19 06:40:19;;;;;;;5.20;3.70;;;;;;;;;;5043941;28;20230;-73
2023/03/19 06:42:46;;;;;;;5.83;4.40;;;;;;;;;;5044047;28;20193;-72
2023/03/19 06:45:17;;;;;;;5.20;4.00;;;;;;;;;;5044804;28;20214;-73
2023/03/19 06:47:44;;;;;;;5.33;3.80;;;;;;;;;;5043272;28;20181;-72
2023/03/19 06:50:11;;;;;;;4.97;3.90;;;;;;;;;;5042433;28;20264;-73
2023/03/19 06:52:37;;;;;;;6.57;4.27;;;;;;;;;;5043145;28;20250;-73
2023/03/19 06:55:04;;;;;;;5.67;3.97;;;;;;;;;;5043118;28;20212;-73
2023/03/19 06:57:30;;;;;;;4.57;3.63;;;;;;;;;;5044141;28;20189;-73
2023/03/19 06:59:56;;;;;;;4.83;4.00;;;;;;;;;;5041750;28;20205;-72
2023/03/19 07:02:22;;;;;;;6.10;4.27;;;;;;;;;;5043045;28;20704;-73
2023/03/19 07:04:48;;;;;;;6.03;4.27;;;;;;;;;;5043833;28;20847;-72
2023/03/19 07:07:14;;;;;;;6.07;4.10;;;;;;;;;;5044473;28;20238;-72
2023/03/19 07:09:40;;;;;;;4.30;3.57;;;;;;;;;;5047220;28;20199;-73
2023/03/19 07:12:07;;;;;;;4.80;4.07;;;;;;;;;;5045366;28;20682;-72
2023/03/19 07:14:33;;;;;;;5.43;4.00;;;;;;;;;;5041643;28;20728;-72
2023/03/19 07:16:59;;;;;;;5.90;4.00;;;;;;;;;;5040765;28;20188;-72
2023/03/19 07:19:26;;;;;;;5.70;4.00;;;;;;;;;;5039892;28;20182;-77
2023/03/19 07:21:52;;;;;;;5.50;4.03;;;;;;;;;;5044094;28;20602;-73
2023/03/19 07:24:18;;;;;;;5.03;3.77;;;;;;;;;;5045913;28;20210;-72
2023/03/19 07:26:45;;;;;;;7.37;4.20;;;;;;;;;;5043625;28;20214;-72
2023/03/19 07:29:11;;;;;;;6.77;4.00;;;;;;;;;;5042771;28;20205;-73
2023/03/19 07:31:37;;;;;;;7.00;3.90;;;;;;;;;;5048795;28;20246;-75
2023/03/19 07:34:04;;;;;;;4.50;3.53;;;;;;;;;;5027030;28;20210;-72
2023/03/19 07:36:30;;;;;;;5.77;4.40;;;;;;;;;;5045429;28;20186;-73
2023/03/19 07:38:56;;;;;;;6.20;4.00;;;;;;;;;;5042932;28;20186;-73
2023/03/19 07:41:22;;;;;;;5.23;3.90;;;;;;;;;;5041484;28;20220;-73
2023/03/19 07:43:48;;;;;;;5.63;3.90;;;;;;;;;;5040318;28;20182;-72
2023/03/19 07:46:15;;;;;;;4.80;4.00;;;;;;;;;;5021336;28;20780;-72
2023/03/19 07:48:41;;;;;;;5.87;3.80;;;;;;;;;;5040437;28;20201;-72
2023/03/19 07:51:07;;;;;;;6.27;4.00;;;;;;;;;;5039371;28;20557;-72
2023/03/19 07:53:33;;;;;;;4.87;3.30;;;;;;;;;;5041538;28;20188;-73
2023/03/19 07:55:59;;;;;;;5.13;3.63;;;;;;;;;;5040240;28;20185;-72
2023/03/19 07:58:25;;;;;;;5.73;4.00;;;;;;;;;;5040109;28;20701;-72
2023/03/19 08:00:52;;;;;;;7.20;3.70;;;;;;;;;;5051248;28;20186;-73
2023/03/19 08:03:19;;;;;;;4.70;3.93;;;;;;;;;;5022629;28;20730;-73
2023/03/19 08:05:48;;;;;;;4.43;3.40;;;;;;;;;;5042970;28;20202;-73
2023/03/19 08:08:15;;;;;;;6.00;3.70;;;;;;;;;;5045311;28;20206;-73
2023/03/19 08:10:42;;;;;;;4.77;3.90;;;;;;;;;;5044106;28;20594;-73
2023/03/19 08:13:08;;;;;;;6.97;3.80;;;;;;;;;;5040475;28;20599;-73
2023/03/19 08:15:34;;;;;;;4.20;3.80;;;;;;;;;;5046238;28;20201;-73
2023/03/19 08:18:02;;;;;;;4.70;3.80;;;;;;;;;;5044972;28;20212;-72
2023/03/19 08:20:28;;;;;;;5.50;3.60;;;;;;;;;;5028563;28;20191;-73
2023/03/19 08:22:55;;;;;;;4.67;3.50;;;;;;;;;;5045624;28;20174;-72
2023/03/19 08:25:21;;;;;;;6.43;4.07;;;;;;;;;;5049408;28;20290;-73
2023/03/19 08:27:48;;;;;;;5.33;3.67;;;;;;;;;;5045763;28;20252;-73
2023/03/19 08:30:14;;;;;;;4.67;3.30;;;;;;;;;;5046892;28;20206;-73
2023/03/19 08:32:40;;;;;;;5.30;3.50;;;;;;;;;;5055701;28;20273;-72
2023/03/19 08:35:07;;;;;;;5.30;3.87;;;;;;;;;;5046259;28;20201;-72
2023/03/19 08:37:33;;;;;;;4.77;3.80;;;;;;;;;;5052587;28;20189;-73
2023/03/19 08:39:59;;;;;;;7.20;3.80;;;;;;;;;;5047125;28;20665;-72
2023/03/19 08:42:25;;;;;;;6.40;3.80;;;;;;;;;;5051407;28;20532;-73
2023/03/19 08:44:51;;;;;;;4.37;3.60;;;;;;;;;;5050616;28;20225;-72
2023/03/19 08:47:18;;;;;;;6.33;3.40;;;;;;;;;;5054669;28;20178;-73
2023/03/19 08:49:44;;;;;;;4.10;3.17;;;;;;;;;;5052769;28;20301;-72
2023/03/19 08:52:10;;;;;;;6.67;3.80;;;;;;;;;;5054299;28;20200;-73
2023/03/19 08:54:36;;;;;;;7.70;4.73;;;;;;;;;;5038750;28;20197;-72
2023/03/19 08:57:03;;;;;;;5.47;3.60;;;;;;;;;;5054963;28;20676;-73
2023/03/19 08:59:29;;;;;;;5.73;3.60;;;;;;;;;;5054273;28;20292;-73
2023/03/19 09:01:55;;;;;;;5.17;3.57;;;;;;;;;;5029049;28;20197;-73
2023/03/19 09:04:22;;;;;;;4.43;3.50;;;;;;;;;;5046058;28;20213;-73
2023/03/19 09:06:51;;;;;;;6.97;3.20;;;;;;;;;;5051245;28;20178;-73
2023/03/19 09:09:21;;;;;;;7.50;3.50;;;;;;;;;;5043458;28;20574;-73
2023/03/19 09:11:48;;;;;;;5.33;3.57;;;;;;;;;;5052866;28;20162;-72
2023/03/19 09:14:15;;;;;;;3.77;3.20;;;;;;;;;;5049828;28;20284;-73
2023/03/19 09:16:42;;;;;;;4.30;3.47;;;;;;;;;;5051670;28;20182;-73
2023/03/19 09:19:08;;;;;;;4.40;3.47;;;;;;;;;;5053133;28;20287;-72
2023/03/19 09:21:35;;;;;;;4.47;3.40;;;;;;;;;;5052927;28;20186;-72
2023/03/19 09:24:01;;;;;;;5.73;3.40;;;;;;;;;;5050125;28;20206;-73
2023/03/19 09:26:28;;;;;;;4.37;3.30;;;;;;;;;;5053158;28;20284;-73
2023/03/19 09:28:54;;;;;;;4.77;3.40;;;;;;;;;;5050838;28;20278;-73
2023/03/19 09:31:21;;;;;;;5.77;3.30;;;;;;;;;;5047888;28;20631;-73
2023/03/19 09:33:47;;;;;;;3.93;3.13;;;;;;;;;;5051239;28;20295;-73
2023/03/19 09:36:13;;;;;;;4.70;3.23;;;;;;;;;;5056453;28;20278;-73
2023/03/19 09:38:39;;;;;;;5.60;3.43;;;;;;;;;;5049456;28;20194;-73
2023/03/19 09:41:24;;;;;;;4.83;3.10;;;;;;;;;;5051079;28;20186;-73
2023/03/19 09:43:50;;;;;;;4.00;2.93;;;;;;;;;;5051520;28;20220;-73
2023/03/19 09:46:22;;;;;;;7.30;3.70;;;;;;;;;;5052658;28;20196;-73
2023/03/19 09:48:48;;;;;;;5.50;3.57;;;;;;;;;;5048399;28;20202;-74
2023/03/19 09:51:18;;;;;;;5.97;3.43;;;;;;;;;;5052735;28;20206;-73
2023/03/19 09:53:55;;;;;;;4.87;3.20;;;;;;;;;;5050390;28;20564;-74
2023/03/19 09:56:25;;;;;;;5.07;3.50;;;;;;;;;;5053750;28;20188;-74
2023/03/19 09:58:51;;;;;;;8.13;4.23;;;;;;;;;;5044962;28;20637;-73
2023/03/19 10:01:22;;;;;;;4.53;3.63;;;;;;;;;;5052536;28;20632;-74
2023/03/19 10:04:07;;;;;;;3.93;2.70;;;;;;;;;;5052838;28;20192;-73
2023/03/19 10:06:35;;;;;;;3.10;2.67;;;;;;;;;;5050728;28;20176;-73
2023/03/19 10:09:17;;;;;;;4.53;2.80;;;;;;;;;;5052946;28;20224;-73
2023/03/19 10:11:47;;;;;;;3.47;2.50;;;;;;;;;;5051454;28;20178;-73
2023/03/19 10:14:22;;;;;;;4.40;2.70;;;;;;;;;;5048523;28;20206;-72
2023/03/19 10:16:49;;;;;;;3.80;2.90;;;;;;;;;;5058915;28;20184;-73
2023/03/19 10:19:18;;;;;;;6.93;3.00;;;;;;;;;;5052551;28;20186;-73
2023/03/19 10:21:50;;;;;;;4.83;2.50;;;;;;;;;;5031055;28;20186;-73
2023/03/19 10:24:30;;;;;;;5.23;2.93;;;;;;;;;;5049460;28;20213;-73
2023/03/19 10:26:58;;;;;;;5.20;3.43;;;;;;;;;;5048248;28;20190;-73
2023/03/19 10:29:25;;;;;;;5.57;3.00;;;;;;;;;;5046522;28;20309;-73
2023/03/19 10:32:08;;;;;;;3.87;2.83;;;;;;;;;;5054489;28;20170;-73
2023/03/19 10:34:36;;;;;;;5.47;3.20;;;;;;;;;;5051022;28;20213;-73
2023/03/19 10:37:06;;;;;;;6.37;3.00;;;;;;;;;;5048389;28;20177;-74
2023/03/19 10:39:34;;;;;;;3.67;3.00;;;;;;;;;;5053778;28;20181;-76
2023/03/19 10:42:05;;;;;;;5.07;3.10;;;;;;;;;;5059581;28;20177;-76
2023/03/19 10:44:36;;;;;;;6.50;3.20;;;;;;;;;;5055245;28;20291;-75
2023/03/19 10:47:10;;;;;;;5.00;3.17;;;;;;;;;;5053836;28;20181;-75
2023/03/19 10:49:37;;;;;;;4.83;2.80;;;;;;;;;;5050177;28;20232;-75
2023/03/19 10:52:03;;;;;;;3.83;2.60;;;;;;;;;;5045987;28;20189;-75
2023/03/19 10:54:30;;;;;;;4.67;3.03;;;;;;;;;;5047928;28;20232;-74
2023/03/19 10:56:58;;;;;;;5.57;2.83;;;;;;;;;;5058384;28;20182;-74
2023/03/19 10:59:24;;;;;;;5.50;3.10;;;;;;;;;;5046084;28;21865;-73
2023/03/19 11:01:55;;;;;;;4.03;2.70;;;;;;;;;;5052292;28;20546;-74
2023/03/19 11:04:22;;;;;;;4.03;2.63;;;;;;;;;;5049120;28;20294;-74
2023/03/19 11:06:49;;;;;;;5.13;2.50;;;;;;;;;;5023269;28;20547;-74
2023/03/19 11:09:31;;;;;;;4.63;2.70;;;;;;;;;;5047335;28;20202;-74
2023/03/19 11:11:59;;;;;;;4.13;2.37;;;;;;;;;;5055489;28;20185;-74
2023/03/19 11:14:29;;;;;;;3.60;2.50;;;;;;;;;;5041050;28;20209;-74
2023/03/19 11:17:02;;;;;;;5.50;2.63;;;;;;;;;;5053226;28;20185;-74
2023/03/19 11:19:30;;;;;;;6.23;2.83;;;;;;;;;;5054111;28;20180;-74
2023/03/19 11:22:01;;;;;;;6.17;2.63;;;;;;;;;;5049536;28;20264;-75
2023/03/19 11:24:27;;;;;;;3.87;2.50;;;;;;;;;;5054065;28;20689;-74
2023/03/19 11:26:54;;;;;;;3.97;2.33;;;;;;;;;;5048034;28;20201;-74
2023/03/19 11:29:21;;;;;;;4.83;2.63;;;;;;;;;;5063823;28;20685;-74
2023/03/19 11:31:52;;;;;;;4.47;2.57;;;;;;;;;;5052462;28;20715;-74
2023/03/19 11:34:37;;;;;;;4.30;2.80;;;;;;;;;;5053177;28;20571;-74
2023/03/19 11:37:10;;;;;;;3.83;2.83;;;;;;;;;;5047237;28;20223;-74
2023/03/19 11:39:57;;;;;;;3.10;2.80;;;;;;;;;;5049117;28;20186;-74
2023/03/19 11:42:29;;;;;;;3.23;2.50;;;;;;;;;;5048169;28;20178;-74
2023/03/19 11:45:07;;;;;;;4.57;3.10;;;;;;;;;;5043705;28;20205;-73
2023/03/19 11:47:37;;;;;;;4.40;3.27;;;;;;;;;;5043925;28;20367;-74
2023/03/19 11:50:18;;;;;;;3.23;2.60;;;;;;;;;;5043303;28;20205;-74
2023/03/19 11:52:56;;;;;;;4.10;2.60;;;;;;;;;;5033710;28;20288;-74
2023/03/19 11:55:31;;;;;;;4.93;3.13;;;;;;;;;;5051571;28;20205;-74
2023/03/19 11:58:16;;;;;;;3.37;2.40;;;;;;;;;;5047684;28;20192;-74
2023/03/19 12:00:46;;;;;;;3.67;2.50;;;;;;;;;;5048292;28;20182;-74
2023/03/19 12:03:31;;;;;;;5.73;2.60;;;;;;;;;;5045330;28;20186;-74
2023/03/19 12:05:59;;;;;;;3.07;2.30;;;;;;;;;;5033642;28;20186;-74
2023/03/19 12:08:28;;;;;;;3.60;2.47;;;;;;;;;;5063132;28;20213;-74
2023/03/19 12:11:07;;;;;;;3.67;2.50;;;;;;;;;;5029535;28;20913;-73
2023/03/19 12:13:37;;;;;;;3.53;2.70;;;;;;;;;;5047107;28;20652;-74
2023/03/19 12:16:12;;;;;;;4.57;2.70;;;;;;;;;;5050615;28;20182;-75
2023/03/19 12:18:42;;;;;;;3.90;2.50;;;;;;;;;;5050408;28;20185;-74
2023/03/19 12:21:19;;;;;;;3.83;2.30;;;;;;;;;;5047961;28;20196;-75
2023/03/19 12:24:10;;;;;;;5.07;2.70;;;;;;;;;;5049262;28;20194;-75
2023/03/19 12:26:48;;;;;;;4.37;2.70;;;;;;;;;;5051801;28;20186;-75
2023/03/19 12:29:22;;;;;;;3.20;2.50;;;;;;;;;;5019831;28;20697;-75
2023/03/19 12:32:18;;;;;;;2.90;2.30;;;;;;;;;;5035342;28;20177;-75
2023/03/19 12:34:50;;;;;;;14.20;2.80;;;;;;;;;;5036827;28;20586;-75
2023/03/19 12:37:20;;;;;;;23.23;3.00;;;;;;;;;;5049543;28;20177;-75
2023/03/19 12:39:50;;;;;;;3.40;2.37;;;;;;;;;;5060409;28;20685;-75
2023/03/19 12:42:19;;;;;;;2.93;2.30;;;;;;;;;;5047760;28;20194;-74
2023/03/19 12:44:48;;;;;;;4.33;2.07;;;;;;;;;;5056187;28;20230;-75
2023/03/19 12:47:17;;;;;;;2.97;2.40;;;;;;;;;;5050782;28;20214;-74
2023/03/19 12:49:46;;;;;;;3.60;2.23;;;;;;;;;;5054768;28;20292;-73
2023/03/19 12:52:17;;;;;;;3.20;2.33;;;;;;;;;;5047775;28;20197;-74
2023/03/19 12:54:46;;;;;;;4.33;2.33;;;;;;;;;;5048070;28;20224;-75
2023/03/19 12:57:28;;;;;;;5.07;2.30;;;;;;;;;;5047825;28;20177;-74
2023/03/19 12:59:59;;;;;;;3.77;2.50;;;;;;;;;;5049079;28;20216;-77
2023/03/19 13:02:34;;;;;;;2.90;2.37;;;;;;;;;;5036068;28;20244;-77
2023/03/19 13:05:04;;;;;;;5.70;2.67;;;;;;;;;;5047598;28;20688;-78
2023/03/19 13:07:50;;;;;;;4.70;2.57;;;;;;;;;;5054041;28;20185;-78
2023/03/19 13:10:20;;;;;;;2.67;2.00;;;;;;;;;;5052665;28;20215;-76
2023/03/19 13:12:48;;;;;;;2.60;2.40;;;;;;;;;;5043063;28;20204;-77
2023/03/19 13:15:23;;;;;;;4.03;2.77;;;;;;;;;;5049113;28;20233;-72
2023/03/19 13:18:05;;;;;;;6.07;2.80;;;;;;;;;;5027926;28;20538;-75
2023/03/19 13:20:34;;;;;;;3.53;2.73;;;;;;;;;;5048686;28;20234;-74
2023/03/19 13:23:02;;;;;;;5.37;2.90;;;;;;;;;;5050172;28;20192;-73
2023/03/19 13:25:34;;;;;;;3.80;2.40;;;;;;;;;;5052943;28;20568;-74
2023/03/19 13:28:00;;;;;;;3.83;2.73;;;;;;;;;;5051136;28;20178;-74
2023/03/19 13:30:26;;;;;;;5.33;2.60;;;;;;;;;;5050162;28;20200;-74
2023/03/19 13:33:00;;;;;;;3.80;2.60;;;;;;;;;;5050919;28;20189;-74
2023/03/19 13:35:30;;;;;;;3.30;2.13;;;;;;;;;;5053923;28;20200;-74
2023/03/19 13:37:59;;;;;;;4.30;2.40;;;;;;;;;;5049194;28;20198;-73
2023/03/19 13:40:38;;;;;;;3.90;2.53;;;;;;;;;;5052498;28;20189;-73
2023/03/19 13:43:04;;;;;;;5.03;2.70;;;;;;;;;;5051911;28;20189;-74
2023/03/19 13:45:37;;;;;;;5.27;2.77;;;;;;;;;;5051541;28;20532;-73
2023/03/19 13:48:23;;;;;;;4.20;2.77;;;;;;;;;;5051940;28;20169;-74
2023/03/19 13:50:53;;;;;;;5.30;2.80;;;;;;;;;;5049247;28;20554;-73
2023/03/19 13:53:22;;;;;;;4.07;2.40;;;;;;;;;;5050265;28;20253;-73
2023/03/19 13:55:51;;;;;;;3.37;2.30;;;;;;;;;;5047686;28;20260;-74
2023/03/19 14:01:26;;;;;;;4.33;2.90;;;;;;;;;;5043709;28;20173;-73
2023/03/19 14:04:00;;;;;;;3.30;2.57;;;;;;;;;;5050698;28;20209;-73
2023/03/19 14:06:38;;;;;;;4.20;2.67;;;;;;;;;;5042111;28;20176;-72
2023/03/19 14:09:06;;;;;;;5.07;2.87;;;;;;;;;;5050000;28;20221;-72
2023/03/19 14:11:34;;;;;;;5.83;3.20;;;;;;;;;;5049085;28;20205;-73
2023/03/19 14:14:03;;;;;;;5.13;2.90;;;;;;;;;;5052881;28;20205;-73
2023/03/19 14:16:38;;;;;;;2.90;2.60;;;;;;;;;;5045202;28;20572;-73
2023/03/19 14:19:10;;;;;;;2.97;2.37;;;;;;;;;;5047590;28;20188;-73
2023/03/19 14:21:41;;;;;;;2.77;2.40;;;;;;;;;;5051285;28;20672;-73
2023/03/19 14:24:21;;;;;;;2.80;2.13;;;;;;;;;;5049830;28;20206;-73
2023/03/19 14:26:47;;;;;;;4.17;2.23;;;;;;;;;;5055040;28;20174;-73
2023/03/19 14:29:14;;;;;;;2.03;1.83;;;;;;;;;;5049086;28;20214;-73
2023/03/19 14:31:49;;;;;;;3.13;2.00;;;;;;;;;;5050517;28;20178;-73
2023/03/19 14:34:32;;;;;;;2.73;2.00;;;;;;;;;;5049139;28;20209;-73
2023/03/19 14:37:03;;;;;;;3.93;2.00;;;;;;;;;;5051833;28;20182;-73
2023/03/19 14:39:31;;;;;;;2.80;2.00;;;;;;;;;;5050876;28;20198;-73
2023/03/19 14:42:06;;;;;;;3.20;2.03;;;;;;;;;;5048982;28;20522;-74
2023/03/19 14:44:43;;;;;;;3.43;2.27;;;;;;;;;;5048949;28;20205;-73
2023/03/19 14:47:19;;;;;;;3.13;2.17;;;;;;;;;;5047359;28;20201;-73
2023/03/19 14:49:45;;;;;;;3.87;2.13;;;;;;;;;;5048283;28;20212;-72
2023/03/19 14:52:15;;;;;;;3.27;2.10;;;;;;;;;;5044845;28;20696;-74
2023/03/19 14:54:48;;;;;;;4.20;2.40;;;;;;;;;;5049553;28;20219;-73
2023/03/19 14:57:19;;;;;;;2.10;1.90;;;;;;;;;;5045184;28;20548;-73